createdAt,value
2023-02-02T00:08:56.475Z,0.00
2023-02-02T00:19:04.671Z,0.00
2023-02-02T00:29:14.512Z,0.00
2023-02-02T00:39:24.222Z,0.00
2023-02-02T00:49:32.694Z,0.00
2023-02-02T00:59:41.044Z,0.00
2023-02-02T01:09:50.561Z,0.00
2023-02-02T01:19:59.430Z,0.00
2023-02-02T01:30:08.125Z,0.00
2023-02-02T01:40:17.222Z,0.00
2023-02-02T01:50:26.210Z,0.00
2023-02-02T02:00:35.898Z,0.00
2023-02-02T02:10:45.626Z,0.00
2023-02-02T02:20:53.695Z,0.00
2023-02-02T02:31:02.277Z,0.00
2023-02-02T02:41:12.093Z,0.00
2023-02-02T02:51:22.032Z,0.00
2023-02-02T03:01:31.162Z,0.00
2023-02-02T03:11:40.969Z,0.00
2023-02-02T03:21:50.238Z,0.00
2023-02-02T03:31:59.601Z,0.00
2023-02-02T03:42:08.240Z,0.00
2023-02-02T03:52:17.725Z,0.00
2023-02-02T04:02:27.414Z,0.00
2023-02-02T04:12:37.318Z,0.00
2023-02-02T04:22:47.960Z,0.00
2023-02-02T04:32:57.444Z,0.00
2023-02-02T04:43:07.285Z,0.00
2023-02-02T04:53:17.100Z,0.00
2023-02-02T05:03:26.964Z,0.00
2023-02-02T05:13:36.511Z,0.00
2023-02-02T05:23:46.325Z,0.00
2023-02-02T05:33:55.943Z,0.00
2023-02-02T05:44:05.498Z,0.00
2023-02-02T05:54:15.393Z,0.00
2023-02-02T06:04:24.748Z,0.00
2023-02-02T06:14:34.582Z,0.00
2023-02-02T06:24:45.346Z,0.00
2023-02-02T06:34:54.852Z,0.00
2023-02-02T06:45:04.590Z,0.00
2023-02-02T06:55:14.293Z,4.00
2023-02-02T07:05:24.680Z,4.00
2023-02-02T07:15:34.274Z,4.00
2023-02-02T07:25:44.055Z,8.00
2023-02-02T07:35:53.447Z,4.00
2023-02-02T07:46:02.311Z,56.00
2023-02-02T07:56:11.845Z,232.00
2023-02-02T08:06:20.365Z,256.00
2023-02-02T08:16:29.044Z,300.00
2023-02-02T08:26:39.182Z,344.00
2023-02-02T08:36:48.522Z,356.00
2023-02-02T08:46:58.014Z,332.00
2023-02-02T08:57:06.896Z,392.00
2023-02-02T09:07:16.737Z,120.00
2023-02-02T09:17:26.336Z,100.00
2023-02-02T09:27:35.551Z,124.00
2023-02-02T09:37:44.712Z,112.00
2023-02-02T09:47:54.622Z,100.00
2023-02-02T09:58:03.236Z,104.00
2023-02-02T10:08:15.166Z,84.00
2023-02-02T10:18:26.298Z,68.00
2023-02-02T10:28:36.055Z,392.00
2023-02-02T10:38:45.824Z,124.00
2023-02-02T10:48:54.562Z,100.00
2023-02-02T10:59:02.903Z,52.00
2023-02-02T11:09:11.382Z,104.00
2023-02-02T11:19:19.923Z,100.00
2023-02-02T11:29:28.720Z,128.00
2023-02-02T11:39:38.394Z,340.00
2023-02-02T11:49:46.959Z,64.00
2023-02-02T11:59:58.655Z,84.00
2023-02-02T12:10:07.143Z,52.00
2023-02-02T12:20:15.700Z,32.00
2023-02-02T12:30:24.090Z,52.00
2023-02-02T12:40:33.746Z,148.00
2023-02-02T12:50:42.672Z,64.00
2023-02-02T13:00:51.819Z,132.00
2023-02-02T13:11:01.583Z,124.00
2023-02-02T13:21:10.165Z,128.00
2023-02-02T13:31:19.951Z,116.00
2023-02-02T13:41:29.694Z,48.00
2023-02-02T13:51:37.976Z,56.00
2023-02-02T14:01:46.412Z,40.00
2023-02-02T14:11:55.338Z,32.00
2023-02-02T14:22:04.096Z,32.00
2023-02-02T14:32:14.424Z,44.00
2023-02-02T14:42:23.260Z,32.00
2023-02-02T14:52:31.680Z,32.00
2023-02-02T15:02:41.838Z,28.00
2023-02-02T15:12:50.672Z,20.00
2023-02-02T15:23:00.588Z,60.00
2023-02-02T15:33:09.337Z,52.00
2023-02-02T15:43:19.041Z,52.00
2023-02-02T15:53:28.409Z,48.00
2023-02-02T16:03:38.220Z,44.00
2023-02-02T16:13:47.459Z,44.00
2023-02-02T16:23:56.927Z,52.00
2023-02-02T16:34:06.770Z,52.00
2023-02-02T16:44:16.613Z,52.00
2023-02-02T16:54:26.370Z,24.00
2023-02-02T17:04:36.109Z,24.00
2023-02-02T17:14:44.597Z,16.00
2023-02-02T17:24:53.700Z,12.00
2023-02-02T17:35:02.773Z,16.00
2023-02-02T17:45:12.462Z,16.00
2023-02-02T17:55:21.771Z,16.00
2023-02-02T18:05:31.073Z,16.00
2023-02-02T18:15:41.152Z,16.00
2023-02-02T18:25:50.915Z,16.00
2023-02-02T18:36:00.532Z,20.00
2023-02-02T18:46:10.641Z,16.00
2023-02-02T18:56:20.668Z,16.00
2023-02-02T19:06:30.586Z,20.00
2023-02-02T19:16:40.196Z,20.00
2023-02-02T19:26:49.734Z,20.00
2023-02-02T19:36:59.395Z,20.00
2023-02-02T19:47:09.153Z,20.00
2023-02-02T19:57:19.272Z,20.00
2023-02-02T20:07:28.966Z,20.00
2023-02-02T20:17:38.995Z,20.00
2023-02-02T20:27:50.646Z,20.00
2023-02-02T20:38:00.405Z,20.00
2023-02-02T20:48:10.096Z,16.00
2023-02-02T20:58:18.744Z,20.00
2023-02-02T21:08:28.356Z,0.00
2023-02-02T21:18:37.759Z,0.00
2023-02-02T21:28:47.459Z,0.00
2023-02-02T21:38:56.523Z,0.00
2023-02-02T21:49:06.320Z,0.00
2023-02-02T21:59:16.128Z,0.00
2023-02-02T22:09:25.375Z,0.00
2023-02-02T22:19:34.041Z,0.00
2023-02-02T22:29:43.285Z,0.00
2023-02-02T22:39:52.936Z,0.00
2023-02-02T22:50:02.241Z,0.00
2023-02-02T23:00:11.712Z,0.00
2023-02-02T23:10:21.399Z,0.00
2023-02-02T23:20:30.669Z,0.00
2023-02-02T23:30:40.251Z,0.00
2023-02-02T23:40:50.159Z,0.00
2023-02-02T23:50:59.939Z,0.00
